sensor_id;sensor_type;location;lat;lon;timestamp;P1;durP1;ratioP1;P2;durP2;ratioP2
27622;SDS011;15041;45.334;5.622;2024-01-30T00:00:41;18.17;;;13.47;;
27622;SDS011;15041;45.334;5.622;2024-01-30T00:03:10;18.10;;;13.27;;
27622;SDS011;15041;45.334;5.622;2024-01-30T00:05:37;16.03;;;12.37;;
27622;SDS011;15041;45.334;5.622;2024-01-30T00:08:06;18.77;;;12.93;;
27622;SDS011;15041;45.334;5.622;2024-01-30T00:10:33;19.50;;;13.70;;
27622;SDS011;15041;45.334;5.622;2024-01-30T00:13:01;18.00;;;14.37;;
27622;SDS011;15041;45.334;5.622;2024-01-30T00:15:28;22.73;;;14.97;;
27622;SDS011;15041;45.334;5.622;2024-01-30T00:17:57;23.53;;;17.67;;
27622;SDS011;15041;45.334;5.622;2024-01-30T00:20:26;24.80;;;16.07;;
27622;SDS011;15041;45.334;5.622;2024-01-30T00:22:53;19.30;;;13.67;;
27622;SDS011;15041;45.334;5.622;2024-01-30T00:25:20;19.27;;;12.27;;
27622;SDS011;15041;45.334;5.622;2024-01-30T00:27:47;17.93;;;13.50;;
27622;SDS011;15041;45.334;5.622;2024-01-30T00:30:14;17.20;;;13.47;;
27622;SDS011;15041;45.334;5.622;2024-01-30T00:32:42;17.17;;;13.63;;
27622;SDS011;15041;45.334;5.622;2024-01-30T00:35:09;18.90;;;13.70;;
27622;SDS011;15041;45.334;5.622;2024-01-30T00:37:37;19.37;;;13.97;;
27622;SDS011;15041;45.334;5.622;2024-01-30T00:40:05;19.47;;;14.40;;
27622;SDS011;15041;45.334;5.622;2024-01-30T00:42:33;19.13;;;13.63;;
27622;SDS011;15041;45.334;5.622;2024-01-30T00:45:00;20.30;;;13.83;;
27622;SDS011;15041;45.334;5.622;2024-01-30T00:47:27;19.27;;;13.33;;
27622;SDS011;15041;45.334;5.622;2024-01-30T00:49:54;29.20;;;14.57;;
27622;SDS011;15041;45.334;5.622;2024-01-30T00:52:21;27.53;;;16.07;;
27622;SDS011;15041;45.334;5.622;2024-01-30T00:54:50;25.93;;;16.27;;
27622;SDS011;15041;45.334;5.622;2024-01-30T00:57:18;19.87;;;15.13;;
27622;SDS011;15041;45.334;5.622;2024-01-30T00:59:45;21.93;;;14.93;;
27622;SDS011;15041;45.334;5.622;2024-01-30T01:02:13;21.67;;;16.77;;
27622;SDS011;15041;45.334;5.622;2024-01-30T01:04:42;21.27;;;15.53;;
27622;SDS011;15041;45.334;5.622;2024-01-30T01:07:09;24.50;;;15.73;;
27622;SDS011;15041;45.334;5.622;2024-01-30T01:09:37;23.33;;;15.73;;
27622;SDS011;15041;45.334;5.622;2024-01-30T01:12:06;25.03;;;16.20;;
27622;SDS011;15041;45.334;5.622;2024-01-30T01:14:33;25.20;;;15.90;;
27622;SDS011;15041;45.334;5.622;2024-01-30T01:17:01;21.70;;;14.73;;
27622;SDS011;15041;45.334;5.622;2024-01-30T01:19:29;22.07;;;15.27;;
27622;SDS011;15041;45.334;5.622;2024-01-30T01:21:56;22.50;;;15.37;;
27622;SDS011;15041;45.334;5.622;2024-01-30T01:24:23;20.07;;;14.93;;
27622;SDS011;15041;45.334;5.622;2024-01-30T01:26:51;19.37;;;15.27;;
27622;SDS011;15041;45.334;5.622;2024-01-30T01:29:20;20.63;;;14.93;;
27622;SDS011;15041;45.334;5.622;2024-01-30T01:31:53;22.77;;;14.93;;
27622;SDS011;15041;45.334;5.622;2024-01-30T01:34:24;18.97;;;14.57;;
27622;SDS011;15041;45.334;5.622;2024-01-30T01:36:51;22.77;;;14.90;;
27622;SDS011;15041;45.334;5.622;2024-01-30T01:39:21;23.13;;;15.50;;
27622;SDS011;15041;45.334;5.622;2024-01-30T01:41:50;19.93;;;14.70;;
27622;SDS011;15041;45.334;5.622;2024-01-30T01:44:17;22.37;;;14.60;;
27622;SDS011;15041;45.334;5.622;2024-01-30T01:46:46;21.67;;;14.93;;
27622;SDS011;15041;45.334;5.622;2024-01-30T01:49:14;21.73;;;15.63;;
27622;SDS011;15041;45.334;5.622;2024-01-30T01:51:42;19.93;;;14.97;;
27622;SDS011;15041;45.334;5.622;2024-01-30T01:54:09;19.17;;;14.93;;
27622;SDS011;15041;45.334;5.622;2024-01-30T01:56:37;19.03;;;14.67;;
27622;SDS011;15041;45.334;5.622;2024-01-30T01:59:05;23.70;;;14.27;;
27622;SDS011;15041;45.334;5.622;2024-01-30T02:01:34;22.17;;;14.90;;
27622;SDS011;15041;45.334;5.622;2024-01-30T02:04:04;19.10;;;15.40;;
27622;SDS011;15041;45.334;5.622;2024-01-30T02:06:34;21.63;;;15.27;;
27622;SDS011;15041;45.334;5.622;2024-01-30T02:09:01;21.13;;;14.23;;
27622;SDS011;15041;45.334;5.622;2024-01-30T02:11:29;19.27;;;14.83;;
27622;SDS011;15041;45.334;5.622;2024-01-30T02:13:57;16.17;;;13.73;;
27622;SDS011;15041;45.334;5.622;2024-01-30T02:16:29;19.03;;;14.23;;
27622;SDS011;15041;45.334;5.622;2024-01-30T02:18:56;18.47;;;14.90;;
27622;SDS011;15041;45.334;5.622;2024-01-30T02:21:25;19.13;;;14.53;;
27622;SDS011;15041;45.334;5.622;2024-01-30T02:23:52;19.27;;;14.47;;
27622;SDS011;15041;45.334;5.622;2024-01-30T02:26:22;19.47;;;14.27;;
27622;SDS011;15041;45.334;5.622;2024-01-30T02:28:49;21.50;;;14.40;;
27622;SDS011;15041;45.334;5.622;2024-01-30T02:31:16;17.20;;;13.97;;
27622;SDS011;15041;45.334;5.622;2024-01-30T02:33:43;25.97;;;13.77;;
27622;SDS011;15041;45.334;5.622;2024-01-30T02:36:10;19.47;;;14.23;;
27622;SDS011;15041;45.334;5.622;2024-01-30T02:38:38;16.40;;;13.70;;
27622;SDS011;15041;45.334;5.622;2024-01-30T02:41:06;16.77;;;14.27;;
27622;SDS011;15041;45.334;5.622;2024-01-30T02:43:33;20.17;;;14.30;;
27622;SDS011;15041;45.334;5.622;2024-01-30T02:46:01;21.07;;;14.40;;
27622;SDS011;15041;45.334;5.622;2024-01-30T02:48:28;19.87;;;13.07;;
27622;SDS011;15041;45.334;5.622;2024-01-30T02:50:55;15.47;;;12.53;;
27622;SDS011;15041;45.334;5.622;2024-01-30T02:53:23;18.80;;;13.83;;
27622;SDS011;15041;45.334;5.622;2024-01-30T02:55:51;18.87;;;14.27;;
27622;SDS011;15041;45.334;5.622;2024-01-30T02:58:18;19.90;;;13.43;;
27622;SDS011;15041;45.334;5.622;2024-01-30T03:00:45;19.80;;;13.63;;
27622;SDS011;15041;45.334;5.622;2024-01-30T03:03:13;18.87;;;13.43;;
27622;SDS011;15041;45.334;5.622;2024-01-30T03:05:40;20.50;;;13.50;;
27622;SDS011;15041;45.334;5.622;2024-01-30T03:08:08;19.03;;;13.03;;
27622;SDS011;15041;45.334;5.622;2024-01-30T03:10:35;16.63;;;12.67;;
27622;SDS011;15041;45.334;5.622;2024-01-30T03:13:04;16.33;;;12.90;;
27622;SDS011;15041;45.334;5.622;2024-01-30T03:15:31;22.67;;;13.10;;
27622;SDS011;15041;45.334;5.622;2024-01-30T03:17:58;18.37;;;13.10;;
27622;SDS011;15041;45.334;5.622;2024-01-30T03:20:25;19.93;;;13.03;;
27622;SDS011;15041;45.334;5.622;2024-01-30T03:22:53;19.63;;;12.20;;
27622;SDS011;15041;45.334;5.622;2024-01-30T03:25:21;20.40;;;12.77;;
27622;SDS011;15041;45.334;5.622;2024-01-30T03:27:48;19.97;;;12.73;;
27622;SDS011;15041;45.334;5.622;2024-01-30T03:30:18;17.27;;;12.73;;
27622;SDS011;15041;45.334;5.622;2024-01-30T03:32:45;17.20;;;13.73;;
27622;SDS011;15041;45.334;5.622;2024-01-30T03:35:12;14.80;;;12.63;;
27622;SDS011;15041;45.334;5.622;2024-01-30T03:37:39;17.70;;;12.87;;
27622;SDS011;15041;45.334;5.622;2024-01-30T03:40:06;19.17;;;12.87;;
27622;SDS011;15041;45.334;5.622;2024-01-30T03:42:34;25.23;;;13.40;;
27622;SDS011;15041;45.334;5.622;2024-01-30T03:45:02;17.50;;;13.97;;
27622;SDS011;15041;45.334;5.622;2024-01-30T03:47:32;18.13;;;12.47;;
27622;SDS011;15041;45.334;5.622;2024-01-30T03:49:59;17.90;;;12.43;;
27622;SDS011;15041;45.334;5.622;2024-01-30T03:52:26;20.43;;;13.43;;
27622;SDS011;15041;45.334;5.622;2024-01-30T03:54:54;17.33;;;12.37;;
27622;SDS011;15041;45.334;5.622;2024-01-30T03:57:21;17.23;;;11.90;;
27622;SDS011;15041;45.334;5.622;2024-01-30T03:59:48;16.63;;;12.37;;
27622;SDS011;15041;45.334;5.622;2024-01-30T04:02:15;18.07;;;12.67;;
27622;SDS011;15041;45.334;5.622;2024-01-30T04:04:44;15.97;;;11.97;;
27622;SDS011;15041;45.334;5.622;2024-01-30T04:07:12;13.77;;;11.57;;
27622;SDS011;15041;45.334;5.622;2024-01-30T04:09:40;15.23;;;12.43;;
27622;SDS011;15041;45.334;5.622;2024-01-30T04:12:07;17.20;;;12.33;;
27622;SDS011;15041;45.334;5.622;2024-01-30T04:14:34;16.90;;;11.83;;
27622;SDS011;15041;45.334;5.622;2024-01-30T04:17:02;17.67;;;12.53;;
27622;SDS011;15041;45.334;5.622;2024-01-30T04:19:29;18.10;;;12.00;;
27622;SDS011;15041;45.334;5.622;2024-01-30T04:21:58;14.67;;;11.73;;
27622;SDS011;15041;45.334;5.622;2024-01-30T04:24:25;16.70;;;12.10;;
27622;SDS011;15041;45.334;5.622;2024-01-30T04:26:52;17.10;;;11.80;;
27622;SDS011;15041;45.334;5.622;2024-01-30T04:29:19;18.80;;;12.63;;
27622;SDS011;15041;45.334;5.622;2024-01-30T04:31:47;20.80;;;11.67;;
27622;SDS011;15041;45.334;5.622;2024-01-30T04:34:15;17.93;;;12.00;;
27622;SDS011;15041;45.334;5.622;2024-01-30T04:36:43;18.50;;;12.60;;
27622;SDS011;15041;45.334;5.622;2024-01-30T04:39:12;16.23;;;12.37;;
27622;SDS011;15041;45.334;5.622;2024-01-30T04:41:39;17.73;;;12.70;;
27622;SDS011;15041;45.334;5.622;2024-01-30T04:44:08;14.47;;;11.77;;
27622;SDS011;15041;45.334;5.622;2024-01-30T04:46:35;18.77;;;13.23;;
27622;SDS011;15041;45.334;5.622;2024-01-30T04:49:02;19.30;;;11.93;;
27622;SDS011;15041;45.334;5.622;2024-01-30T04:51:29;18.47;;;12.90;;
27622;SDS011;15041;45.334;5.622;2024-01-30T04:53:57;15.73;;;12.03;;
27622;SDS011;15041;45.334;5.622;2024-01-30T04:56:26;19.83;;;12.67;;
27622;SDS011;15041;45.334;5.622;2024-01-30T04:58:53;17.87;;;12.50;;
27622;SDS011;15041;45.334;5.622;2024-01-30T05:01:21;18.97;;;12.23;;
27622;SDS011;15041;45.334;5.622;2024-01-30T05:03:48;15.63;;;12.00;;
27622;SDS011;15041;45.334;5.622;2024-01-30T05:06:23;17.07;;;12.73;;
27622;SDS011;15041;45.334;5.622;2024-01-30T05:08:51;16.47;;;12.07;;
27622;SDS011;15041;45.334;5.622;2024-01-30T05:11:19;16.57;;;10.80;;
27622;SDS011;15041;45.334;5.622;2024-01-30T05:13:47;18.70;;;12.67;;
27622;SDS011;15041;45.334;5.622;2024-01-30T05:16:15;16.43;;;12.33;;
27622;SDS011;15041;45.334;5.622;2024-01-30T05:18:42;18.27;;;11.53;;
27622;SDS011;15041;45.334;5.622;2024-01-30T05:21:10;20.37;;;13.70;;
27622;SDS011;15041;45.334;5.622;2024-01-30T05:23:38;19.80;;;12.87;;
27622;SDS011;15041;45.334;5.622;2024-01-30T05:26:07;14.63;;;11.90;;
27622;SDS011;15041;45.334;5.622;2024-01-30T05:28:36;19.07;;;11.50;;
27622;SDS011;15041;45.334;5.622;2024-01-30T05:31:05;17.10;;;13.00;;
27622;SDS011;15041;45.334;5.622;2024-01-30T05:33:32;18.43;;;12.10;;
27622;SDS011;15041;45.334;5.622;2024-01-30T05:36:00;16.57;;;12.60;;
27622;SDS011;15041;45.334;5.622;2024-01-30T05:38:30;16.27;;;12.10;;
27622;SDS011;15041;45.334;5.622;2024-01-30T05:40:58;20.47;;;13.43;;
27622;SDS011;15041;45.334;5.622;2024-01-30T05:43:25;39.17;;;25.00;;
27622;SDS011;15041;45.334;5.622;2024-01-30T05:45:52;18.87;;;13.43;;
27622;SDS011;15041;45.334;5.622;2024-01-30T05:48:21;18.03;;;13.63;;
27622;SDS011;15041;45.334;5.622;2024-01-30T05:50:48;18.60;;;12.47;;
27622;SDS011;15041;45.334;5.622;2024-01-30T05:53:15;15.20;;;12.20;;
27622;SDS011;15041;45.334;5.622;2024-01-30T05:55:43;20.70;;;13.50;;
27622;SDS011;15041;45.334;5.622;2024-01-30T05:58:11;20.53;;;13.77;;
27622;SDS011;15041;45.334;5.622;2024-01-30T06:00:38;43.57;;;25.13;;
27622;SDS011;15041;45.334;5.622;2024-01-30T06:03:05;21.00;;;15.83;;
27622;SDS011;15041;45.334;5.622;2024-01-30T06:05:35;18.23;;;13.23;;
27622;SDS011;15041;45.334;5.622;2024-01-30T06:08:02;18.97;;;13.60;;
27622;SDS011;15041;45.334;5.622;2024-01-30T06:10:29;21.53;;;13.30;;
27622;SDS011;15041;45.334;5.622;2024-01-30T06:12:56;19.17;;;13.43;;
27622;SDS011;15041;45.334;5.622;2024-01-30T06:15:24;18.60;;;13.83;;
27622;SDS011;15041;45.334;5.622;2024-01-30T06:17:52;24.00;;;14.23;;
27622;SDS011;15041;45.334;5.622;2024-01-30T06:20:19;16.63;;;13.30;;
27622;SDS011;15041;45.334;5.622;2024-01-30T06:22:47;27.50;;;15.43;;
27622;SDS011;15041;45.334;5.622;2024-01-30T06:25:14;19.50;;;13.63;;
27622;SDS011;15041;45.334;5.622;2024-01-30T06:27:42;21.23;;;14.87;;
27622;SDS011;15041;45.334;5.622;2024-01-30T06:30:09;21.57;;;13.97;;
27622;SDS011;15041;45.334;5.622;2024-01-30T06:32:37;16.63;;;11.67;;
27622;SDS011;15041;45.334;5.622;2024-01-30T06:35:05;16.13;;;11.70;;
27622;SDS011;15041;45.334;5.622;2024-01-30T06:37:33;16.37;;;12.10;;
27622;SDS011;15041;45.334;5.622;2024-01-30T06:40:02;18.13;;;11.67;;
27622;SDS011;15041;45.334;5.622;2024-01-30T06:42:31;16.40;;;12.70;;
27622;SDS011;15041;45.334;5.622;2024-01-30T06:44:58;17.07;;;11.33;;
27622;SDS011;15041;45.334;5.622;2024-01-30T06:47:25;17.87;;;11.77;;
27622;SDS011;15041;45.334;5.622;2024-01-30T06:49:52;13.53;;;10.97;;
27622;SDS011;15041;45.334;5.622;2024-01-30T06:52:19;23.23;;;11.63;;
27622;SDS011;15041;45.334;5.622;2024-01-30T06:54:47;17.43;;;11.67;;
27622;SDS011;15041;45.334;5.622;2024-01-30T06:57:15;16.43;;;11.53;;
27622;SDS011;15041;45.334;5.622;2024-01-30T06:59:43;21.80;;;12.77;;
27622;SDS011;15041;45.334;5.622;2024-01-30T07:02:10;31.93;;;20.23;;
27622;SDS011;15041;45.334;5.622;2024-01-30T07:04:37;23.73;;;16.07;;
27622;SDS011;15041;45.334;5.622;2024-01-30T07:07:04;26.20;;;15.50;;
27622;SDS011;15041;45.334;5.622;2024-01-30T07:09:37;19.13;;;12.57;;
27622;SDS011;15041;45.334;5.622;2024-01-30T07:12:04;21.73;;;14.83;;
27622;SDS011;15041;45.334;5.622;2024-01-30T07:14:34;25.47;;;13.93;;
27622;SDS011;15041;45.334;5.622;2024-01-30T07:17:01;18.47;;;14.07;;
27622;SDS011;15041;45.334;5.622;2024-01-30T07:19:29;19.90;;;13.37;;
27622;SDS011;15041;45.334;5.622;2024-01-30T07:21:56;18.60;;;12.97;;
27622;SDS011;15041;45.334;5.622;2024-01-30T07:24:23;19.10;;;12.97;;
27622;SDS011;15041;45.334;5.622;2024-01-30T07:26:50;17.33;;;12.43;;
27622;SDS011;15041;45.334;5.622;2024-01-30T07:29:17;16.10;;;12.23;;
27622;SDS011;15041;45.334;5.622;2024-01-30T07:31:46;22.10;;;12.27;;
27622;SDS011;15041;45.334;5.622;2024-01-30T07:34:15;33.03;;;13.33;;
27622;SDS011;15041;45.334;5.622;2024-01-30T07:36:42;26.73;;;13.43;;
27622;SDS011;15041;45.334;5.622;2024-01-30T07:39:09;33.63;;;15.53;;
27622;SDS011;15041;45.334;5.622;2024-01-30T07:41:36;21.73;;;14.77;;
27622;SDS011;15041;45.334;5.622;2024-01-30T07:44:03;24.43;;;13.13;;
27622;SDS011;15041;45.334;5.622;2024-01-30T07:46:30;18.17;;;12.23;;
27622;SDS011;15041;45.334;5.622;2024-01-30T07:48:59;18.43;;;11.80;;
27622;SDS011;15041;45.334;5.622;2024-01-30T07:51:27;21.80;;;12.27;;
27622;SDS011;15041;45.334;5.622;2024-01-30T07:53:57;19.10;;;12.67;;
27622;SDS011;15041;45.334;5.622;2024-01-30T07:56:24;19.93;;;13.13;;
27622;SDS011;15041;45.334;5.622;2024-01-30T07:58:52;18.70;;;12.93;;
27622;SDS011;15041;45.334;5.622;2024-01-30T08:01:19;28.50;;;17.50;;
27622;SDS011;15041;45.334;5.622;2024-01-30T08:03:46;26.40;;;16.87;;
27622;SDS011;15041;45.334;5.622;2024-01-30T08:06:15;22.37;;;15.80;;
27622;SDS011;15041;45.334;5.622;2024-01-30T08:08:42;29.97;;;17.60;;
27622;SDS011;15041;45.334;5.622;2024-01-30T08:11:09;28.23;;;18.40;;
27622;SDS011;15041;45.334;5.622;2024-01-30T08:13:38;30.63;;;15.53;;
27622;SDS011;15041;45.334;5.622;2024-01-30T08:16:05;26.73;;;18.30;;
27622;SDS011;15041;45.334;5.622;2024-01-30T08:18:33;35.40;;;16.23;;
27622;SDS011;15041;45.334;5.622;2024-01-30T08:21:00;20.53;;;13.57;;
27622;SDS011;15041;45.334;5.622;2024-01-30T08:23:30;27.93;;;14.27;;
27622;SDS011;15041;45.334;5.622;2024-01-30T08:25:57;30.27;;;14.80;;
27622;SDS011;15041;45.334;5.622;2024-01-30T08:28:24;41.07;;;17.70;;
27622;SDS011;15041;45.334;5.622;2024-01-30T08:30:51;29.63;;;17.53;;
27622;SDS011;15041;45.334;5.622;2024-01-30T08:33:18;41.10;;;18.67;;
27622;SDS011;15041;45.334;5.622;2024-01-30T08:35:45;43.00;;;18.13;;
27622;SDS011;15041;45.334;5.622;2024-01-30T08:38:13;39.37;;;16.93;;
27622;SDS011;15041;45.334;5.622;2024-01-30T08:40:41;53.83;;;16.50;;
27622;SDS011;15041;45.334;5.622;2024-01-30T08:43:09;58.27;;;15.63;;
27622;SDS011;15041;45.334;5.622;2024-01-30T08:45:36;72.63;;;15.80;;
27622;SDS011;15041;45.334;5.622;2024-01-30T08:48:04;41.23;;;16.57;;
27622;SDS011;15041;45.334;5.622;2024-01-30T08:50:31;28.63;;;13.80;;
27622;SDS011;15041;45.334;5.622;2024-01-30T08:52:58;24.80;;;12.30;;
27622;SDS011;15041;45.334;5.622;2024-01-30T08:55:25;20.33;;;12.40;;
27622;SDS011;15041;45.334;5.622;2024-01-30T08:57:54;18.67;;;13.23;;
27622;SDS011;15041;45.334;5.622;2024-01-30T09:00:22;19.10;;;12.83;;
27622;SDS011;15041;45.334;5.622;2024-01-30T09:02:50;18.90;;;12.53;;
27622;SDS011;15041;45.334;5.622;2024-01-30T09:05:17;20.50;;;13.13;;
27622;SDS011;15041;45.334;5.622;2024-01-30T09:07:45;20.60;;;13.67;;
27622;SDS011;15041;45.334;5.622;2024-01-30T09:10:12;24.57;;;12.83;;
27622;SDS011;15041;45.334;5.622;2024-01-30T09:12:39;31.87;;;13.40;;
27622;SDS011;15041;45.334;5.622;2024-01-30T09:15:08;39.03;;;15.47;;
27622;SDS011;15041;45.334;5.622;2024-01-30T09:17:37;26.73;;;16.50;;
27622;SDS011;15041;45.334;5.622;2024-01-30T09:20:04;32.43;;;15.67;;
27622;SDS011;15041;45.334;5.622;2024-01-30T09:22:32;28.50;;;16.00;;
27622;SDS011;15041;45.334;5.622;2024-01-30T09:25:00;36.67;;;16.13;;
27622;SDS011;15041;45.334;5.622;2024-01-30T09:27:27;37.33;;;16.07;;
27622;SDS011;15041;45.334;5.622;2024-01-30T09:29:54;40.23;;;14.87;;
27622;SDS011;15041;45.334;5.622;2024-01-30T09:32:22;47.37;;;15.70;;
27622;SDS011;15041;45.334;5.622;2024-01-30T09:34:49;39.97;;;14.90;;
27622;SDS011;15041;45.334;5.622;2024-01-30T09:37:17;43.90;;;14.67;;
27622;SDS011;15041;45.334;5.622;2024-01-30T09:39:45;47.43;;;14.87;;
27622;SDS011;15041;45.334;5.622;2024-01-30T09:42:16;39.17;;;14.63;;
27622;SDS011;15041;45.334;5.622;2024-01-30T09:44:51;37.43;;;14.90;;
27622;SDS011;15041;45.334;5.622;2024-01-30T09:47:20;24.73;;;13.63;;
27622;SDS011;15041;45.334;5.622;2024-01-30T09:49:49;25.27;;;12.53;;
27622;SDS011;15041;45.334;5.622;2024-01-30T09:52:18;20.60;;;12.27;;
27622;SDS011;15041;45.334;5.622;2024-01-30T09:54:45;27.08;;;13.82;;
27622;SDS011;15041;45.334;5.622;2024-01-30T09:57:15;27.27;;;14.90;;
27622;SDS011;15041;45.334;5.622;2024-01-30T09:59:43;34.47;;;15.20;;
27622;SDS011;15041;45.334;5.622;2024-01-30T10:02:10;27.33;;;15.38;;
27622;SDS011;15041;45.334;5.622;2024-01-30T10:04:37;26.83;;;14.68;;
27622;SDS011;15041;45.334;5.622;2024-01-30T10:07:05;34.83;;;14.32;;
27622;SDS011;15041;45.334;5.622;2024-01-30T10:09:34;22.58;;;14.02;;
27622;SDS011;15041;45.334;5.622;2024-01-30T10:12:03;22.60;;;13.98;;
27622;SDS011;15041;45.334;5.622;2024-01-30T10:14:33;18.67;;;12.93;;
27622;SDS011;15041;45.334;5.622;2024-01-30T10:17:00;25.65;;;15.55;;
27622;SDS011;15041;45.334;5.622;2024-01-30T10:19:28;19.35;;;13.55;;
27622;SDS011;15041;45.334;5.622;2024-01-30T10:21:55;23.50;;;13.95;;
27622;SDS011;15041;45.334;5.622;2024-01-30T10:24:25;19.38;;;14.27;;
27622;SDS011;15041;45.334;5.622;2024-01-30T10:26:55;17.63;;;13.80;;
27622;SDS011;15041;45.334;5.622;2024-01-30T10:29:24;22.17;;;14.45;;
27622;SDS011;15041;45.334;5.622;2024-01-30T10:31:58;21.38;;;14.00;;
27622;SDS011;15041;45.334;5.622;2024-01-30T10:34:26;30.10;;;14.10;;
27622;SDS011;15041;45.334;5.622;2024-01-30T10:36:56;20.35;;;13.93;;
27622;SDS011;15041;45.334;5.622;2024-01-30T10:39:39;26.17;;;14.60;;
27622;SDS011;15041;45.334;5.622;2024-01-30T10:42:07;19.92;;;14.07;;
27622;SDS011;15041;45.334;5.622;2024-01-30T10:44:43;24.45;;;15.05;;
27622;SDS011;15041;45.334;5.622;2024-01-30T10:47:16;20.83;;;13.98;;
27622;SDS011;15041;45.334;5.622;2024-01-30T10:49:49;21.17;;;14.55;;
27622;SDS011;15041;45.334;5.622;2024-01-30T10:52:18;23.00;;;15.25;;
27622;SDS011;15041;45.334;5.622;2024-01-30T10:54:48;27.60;;;14.75;;
27622;SDS011;15041;45.334;5.622;2024-01-30T10:57:19;23.63;;;14.48;;
27622;SDS011;15041;45.334;5.622;2024-01-30T10:59:49;32.35;;;14.50;;
27622;SDS011;15041;45.334;5.622;2024-01-30T11:02:18;24.40;;;15.05;;
27622;SDS011;15041;45.334;5.622;2024-01-30T11:04:46;21.58;;;14.13;;
27622;SDS011;15041;45.334;5.622;2024-01-30T11:07:14;19.75;;;14.60;;
27622;SDS011;15041;45.334;5.622;2024-01-30T11:09:49;26.48;;;14.95;;
27622;SDS011;15041;45.334;5.622;2024-01-30T11:12:18;21.60;;;14.60;;
27622;SDS011;15041;45.334;5.622;2024-01-30T11:14:48;34.08;;;15.35;;
27622;SDS011;15041;45.334;5.622;2024-01-30T11:17:15;22.17;;;14.52;;
27622;SDS011;15041;45.334;5.622;2024-01-30T11:19:44;22.65;;;13.93;;
27622;SDS011;15041;45.334;5.622;2024-01-30T11:22:13;19.52;;;13.13;;
27622;SDS011;15041;45.334;5.622;2024-01-30T11:24:40;19.00;;;13.88;;
27622;SDS011;15041;45.334;5.622;2024-01-30T11:27:09;9.07;;;8.07;;
27622;SDS011;15041;45.334;5.622;2024-01-30T11:29:38;15.75;;;9.73;;
27622;SDS011;15041;45.334;5.622;2024-01-30T11:32:07;8.48;;;6.20;;
27622;SDS011;15041;45.334;5.622;2024-01-30T11:34:34;9.00;;;6.13;;
27622;SDS011;15041;45.334;5.622;2024-01-30T11:37:03;8.30;;;6.80;;
27622;SDS011;15041;45.334;5.622;2024-01-30T11:39:32;7.45;;;5.97;;
27622;SDS011;15041;45.334;5.622;2024-01-30T11:42:00;11.45;;;7.07;;
27622;SDS011;15041;45.334;5.622;2024-01-30T11:44:31;7.22;;;6.00;;
27622;SDS011;15041;45.334;5.622;2024-01-30T11:46:58;8.15;;;5.97;;
27622;SDS011;15041;45.334;5.622;2024-01-30T11:49:26;8.75;;;6.22;;
27622;SDS011;15041;45.334;5.622;2024-01-30T11:51:53;6.95;;;6.05;;
27622;SDS011;15041;45.334;5.622;2024-01-30T11:54:20;7.15;;;5.97;;
27622;SDS011;15041;45.334;5.622;2024-01-30T11:56:47;8.35;;;6.57;;
27622;SDS011;15041;45.334;5.622;2024-01-30T11:59:15;7.97;;;6.05;;
27622;SDS011;15041;45.334;5.622;2024-01-30T12:01:43;9.65;;;5.82;;
27622;SDS011;15041;45.334;5.622;2024-01-30T12:04:11;6.68;;;5.95;;
27622;SDS011;15041;45.334;5.622;2024-01-30T12:06:38;7.15;;;5.18;;
27622;SDS011;15041;45.334;5.622;2024-01-30T12:09:07;7.38;;;5.25;;
27622;SDS011;15041;45.334;5.622;2024-01-30T12:11:47;11.43;;;6.35;;
27622;SDS011;15041;45.334;5.622;2024-01-30T12:14:16;7.72;;;6.15;;
27622;SDS011;15041;45.334;5.622;2024-01-30T12:16:49;7.90;;;5.95;;
27622;SDS011;15041;45.334;5.622;2024-01-30T12:19:23;7.13;;;5.70;;
27622;SDS011;15041;45.334;5.622;2024-01-30T12:21:54;11.20;;;6.63;;
27622;SDS011;15041;45.334;5.622;2024-01-30T12:24:22;9.23;;;6.65;;
27622;SDS011;15041;45.334;5.622;2024-01-30T12:26:49;6.88;;;5.75;;
27622;SDS011;15041;45.334;5.622;2024-01-30T12:29:17;9.43;;;7.00;;
27622;SDS011;15041;45.334;5.622;2024-01-30T12:31:54;6.60;;;5.88;;
27622;SDS011;15041;45.334;5.622;2024-01-30T12:34:24;7.85;;;6.57;;
27622;SDS011;15041;45.334;5.622;2024-01-30T12:36:51;8.10;;;6.32;;
27622;SDS011;15041;45.334;5.622;2024-01-30T12:39:18;6.68;;;6.05;;
27622;SDS011;15041;45.334;5.622;2024-01-30T12:41:46;9.82;;;6.90;;
27622;SDS011;15041;45.334;5.622;2024-01-30T12:44:13;10.20;;;6.60;;
27622;SDS011;15041;45.334;5.622;2024-01-30T12:46:40;6.85;;;6.13;;
27622;SDS011;15041;45.334;5.622;2024-01-30T12:49:10;7.82;;;6.20;;
27622;SDS011;15041;45.334;5.622;2024-01-30T12:51:37;8.98;;;6.78;;
27622;SDS011;15041;45.334;5.622;2024-01-30T12:54:05;9.65;;;6.32;;
27622;SDS011;15041;45.334;5.622;2024-01-30T12:56:33;9.32;;;6.50;;
27622;SDS011;15041;45.334;5.622;2024-01-30T12:59:00;7.07;;;6.43;;
27622;SDS011;15041;45.334;5.622;2024-01-30T13:01:27;9.07;;;6.65;;
27622;SDS011;15041;45.334;5.622;2024-01-30T13:03:55;8.73;;;5.90;;
27622;SDS011;15041;45.334;5.622;2024-01-30T13:06:26;7.97;;;6.18;;
27622;SDS011;15041;45.334;5.622;2024-01-30T13:08:54;10.95;;;6.65;;
27622;SDS011;15041;45.334;5.622;2024-01-30T13:11:21;9.73;;;6.53;;
27622;SDS011;15041;45.334;5.622;2024-01-30T13:13:50;8.57;;;5.40;;
27622;SDS011;15041;45.334;5.622;2024-01-30T13:16:17;7.13;;;6.10;;
27622;SDS011;15041;45.334;5.622;2024-01-30T13:18:45;7.28;;;5.95;;
27622;SDS011;15041;45.334;5.622;2024-01-30T13:21:12;7.32;;;6.28;;
27622;SDS011;15041;45.334;5.622;2024-01-30T13:23:41;13.23;;;6.53;;
27622;SDS011;15041;45.334;5.622;2024-01-30T13:26:08;7.57;;;5.95;;
27622;SDS011;15041;45.334;5.622;2024-01-30T13:28:36;7.80;;;6.43;;
27622;SDS011;15041;45.334;5.622;2024-01-30T13:31:04;10.63;;;6.50;;
27622;SDS011;15041;45.334;5.622;2024-01-30T13:33:32;6.40;;;5.80;;
27622;SDS011;15041;45.334;5.622;2024-01-30T13:35:59;9.27;;;6.57;;
27622;SDS011;15041;45.334;5.622;2024-01-30T13:38:26;7.32;;;5.80;;
27622;SDS011;15041;45.334;5.622;2024-01-30T13:40:55;7.85;;;6.25;;
27622;SDS011;15041;45.334;5.622;2024-01-30T13:43:22;13.15;;;10.23;;
27622;SDS011;15041;45.334;5.622;2024-01-30T13:45:49;10.95;;;7.60;;
27622;SDS011;15041;45.334;5.622;2024-01-30T13:48:17;9.60;;;7.70;;
27622;SDS011;15041;45.334;5.622;2024-01-30T13:50:44;12.90;;;7.85;;
27622;SDS011;15041;45.334;5.622;2024-01-30T13:53:11;10.82;;;6.90;;
27622;SDS011;15041;45.334;5.622;2024-01-30T13:55:39;9.27;;;5.78;;
27622;SDS011;15041;45.334;5.622;2024-01-30T13:58:08;11.88;;;6.40;;
27622;SDS011;15041;45.334;5.622;2024-01-30T14:00:35;9.65;;;7.13;;
27622;SDS011;15041;45.334;5.622;2024-01-30T14:03:02;7.57;;;6.65;;
27622;SDS011;15041;45.334;5.622;2024-01-30T14:05:30;9.23;;;6.47;;
27622;SDS011;15041;45.334;5.622;2024-01-30T14:07:58;8.75;;;6.57;;
27622;SDS011;15041;45.334;5.622;2024-01-30T14:10:26;10.35;;;8.27;;
27622;SDS011;15041;45.334;5.622;2024-01-30T14:12:54;8.63;;;6.82;;
27622;SDS011;15041;45.334;5.622;2024-01-30T14:15:23;13.68;;;7.35;;
27622;SDS011;15041;45.334;5.622;2024-01-30T14:17:51;11.45;;;7.20;;
27622;SDS011;15041;45.334;5.622;2024-01-30T14:20:18;10.50;;;7.32;;
27622;SDS011;15041;45.334;5.622;2024-01-30T14:22:45;11.20;;;6.45;;
27622;SDS011;15041;45.334;5.622;2024-01-30T14:25:13;13.55;;;6.47;;
27622;SDS011;15041;45.334;5.622;2024-01-30T14:27:41;6.43;;;5.55;;
27622;SDS011;15041;45.334;5.622;2024-01-30T14:30:08;8.20;;;5.90;;